METAR Data
IDs: Format: Raw Decoded Include TAF

Data at: 0153 UTC 01 Mar 2021

LFBZ 010130Z AUTO 09006KT CAVOK 08/06 Q1022 TEMPO 3000 BR